sensor_id;sensor_type;location;lat;lon;timestamp;temperature;humidity
17619;DHT22;8928;51.678;6.074;2023-09-12T00:00:45;19.20;99.90
17619;DHT22;8928;51.678;6.074;2023-09-12T00:03:32;19.30;99.90
17619;DHT22;8928;51.678;6.074;2023-09-12T00:06:19;19.40;99.90
17619;DHT22;8928;51.678;6.074;2023-09-12T00:09:08;19.50;99.90
17619;DHT22;8928;51.678;6.074;2023-09-12T00:11:55;19.50;99.90
17619;DHT22;8928;51.678;6.074;2023-09-12T00:14:42;19.60;99.90
17619;DHT22;8928;51.678;6.074;2023-09-12T00:17:29;19.50;99.90
17619;DHT22;8928;51.678;6.074;2023-09-12T00:20:16;19.50;99.90
17619;DHT22;8928;51.678;6.074;2023-09-12T00:23:03;19.50;99.90
17619;DHT22;8928;51.678;6.074;2023-09-12T00:25:52;19.50;99.90
17619;DHT22;8928;51.678;6.074;2023-09-12T00:28:39;19.60;99.90
17619;DHT22;8928;51.678;6.074;2023-09-12T00:31:26;19.60;99.90
17619;DHT22;8928;51.678;6.074;2023-09-12T00:34:16;19.60;99.90
17619;DHT22;8928;51.678;6.074;2023-09-12T00:37:04;19.60;99.90
17619;DHT22;8928;51.678;6.074;2023-09-12T00:39:51;19.50;99.90
17619;DHT22;8928;51.678;6.074;2023-09-12T00:42:40;19.40;99.90
17619;DHT22;8928;51.678;6.074;2023-09-12T00:45:27;19.50;99.90
17619;DHT22;8928;51.678;6.074;2023-09-12T00:48:15;19.40;99.90
17619;DHT22;8928;51.678;6.074;2023-09-12T00:51:03;19.30;99.90
17619;DHT22;8928;51.678;6.074;2023-09-12T00:53:50;19.30;99.90
17619;DHT22;8928;51.678;6.074;2023-09-12T00:56:38;19.20;99.90
17619;DHT22;8928;51.678;6.074;2023-09-12T00:59:26;19.20;99.90
17619;DHT22;8928;51.678;6.074;2023-09-12T01:02:14;19.10;99.90
17619;DHT22;8928;51.678;6.074;2023-09-12T01:05:01;19.10;99.90
17619;DHT22;8928;51.678;6.074;2023-09-12T01:07:48;19.00;99.90
17619;DHT22;8928;51.678;6.074;2023-09-12T01:10:35;18.90;99.90
17619;DHT22;8928;51.678;6.074;2023-09-12T01:13:23;18.80;99.90
17619;DHT22;8928;51.678;6.074;2023-09-12T01:16:11;18.70;99.90
17619;DHT22;8928;51.678;6.074;2023-09-12T01:18:58;18.60;99.90
17619;DHT22;8928;51.678;6.074;2023-09-12T01:22:03;18.60;99.90
17619;DHT22;8928;51.678;6.074;2023-09-12T01:25:14;18.50;99.90
17619;DHT22;8928;51.678;6.074;2023-09-12T01:28:09;18.40;99.90
17619;DHT22;8928;51.678;6.074;2023-09-12T01:30:58;18.40;99.90
17619;DHT22;8928;51.678;6.074;2023-09-12T01:33:45;18.30;99.90
17619;DHT22;8928;51.678;6.074;2023-09-12T01:36:32;18.30;99.90
17619;DHT22;8928;51.678;6.074;2023-09-12T01:39:19;18.30;99.90
17619;DHT22;8928;51.678;6.074;2023-09-12T01:42:07;18.40;99.90
17619;DHT22;8928;51.678;6.074;2023-09-12T01:44:57;18.30;99.90
17619;DHT22;8928;51.678;6.074;2023-09-12T01:47:45;18.30;99.90
17619;DHT22;8928;51.678;6.074;2023-09-12T01:50:33;18.30;99.90
17619;DHT22;8928;51.678;6.074;2023-09-12T01:53:20;18.30;99.90
17619;DHT22;8928;51.678;6.074;2023-09-12T01:56:07;18.30;99.90
17619;DHT22;8928;51.678;6.074;2023-09-12T01:58:55;18.30;99.90
17619;DHT22;8928;51.678;6.074;2023-09-12T02:01:44;18.30;99.90
17619;DHT22;8928;51.678;6.074;2023-09-12T02:04:31;18.30;99.90
17619;DHT22;8928;51.678;6.074;2023-09-12T02:07:18;18.20;99.90
17619;DHT22;8928;51.678;6.074;2023-09-12T02:10:06;18.10;99.90
17619;DHT22;8928;51.678;6.074;2023-09-12T02:12:53;18.10;99.90
17619;DHT22;8928;51.678;6.074;2023-09-12T02:15:40;18.10;99.90
17619;DHT22;8928;51.678;6.074;2023-09-12T02:18:28;18.00;99.90
17619;DHT22;8928;51.678;6.074;2023-09-12T02:21:15;18.00;99.90
17619;DHT22;8928;51.678;6.074;2023-09-12T02:24:03;17.90;99.90
17619;DHT22;8928;51.678;6.074;2023-09-12T02:26:50;17.90;99.90
17619;DHT22;8928;51.678;6.074;2023-09-12T02:29:38;18.00;99.90
17619;DHT22;8928;51.678;6.074;2023-09-12T02:32:25;18.00;99.90
17619;DHT22;8928;51.678;6.074;2023-09-12T02:35:13;18.00;99.90
17619;DHT22;8928;51.678;6.074;2023-09-12T02:38:00;18.00;99.90
17619;DHT22;8928;51.678;6.074;2023-09-12T02:40:48;18.00;99.90
17619;DHT22;8928;51.678;6.074;2023-09-12T02:43:35;18.00;99.90
17619;DHT22;8928;51.678;6.074;2023-09-12T02:46:22;18.00;99.90
17619;DHT22;8928;51.678;6.074;2023-09-12T02:49:09;17.90;99.90
17619;DHT22;8928;51.678;6.074;2023-09-12T02:51:57;17.90;99.90
17619;DHT22;8928;51.678;6.074;2023-09-12T02:54:44;17.90;99.90
17619;DHT22;8928;51.678;6.074;2023-09-12T02:57:31;17.90;99.90
17619;DHT22;8928;51.678;6.074;2023-09-12T03:00:19;17.90;99.90
17619;DHT22;8928;51.678;6.074;2023-09-12T03:03:06;17.90;99.90
17619;DHT22;8928;51.678;6.074;2023-09-12T03:05:58;18.00;99.90
17619;DHT22;8928;51.678;6.074;2023-09-12T03:08:47;18.00;99.90
17619;DHT22;8928;51.678;6.074;2023-09-12T03:11:35;18.10;99.90
17619;DHT22;8928;51.678;6.074;2023-09-12T03:14:22;18.10;99.90
17619;DHT22;8928;51.678;6.074;2023-09-12T03:17:09;18.10;99.90
17619;DHT22;8928;51.678;6.074;2023-09-12T03:19:56;18.20;99.90
17619;DHT22;8928;51.678;6.074;2023-09-12T03:22:43;18.20;99.90
17619;DHT22;8928;51.678;6.074;2023-09-12T03:25:35;18.20;99.90
17619;DHT22;8928;51.678;6.074;2023-09-12T03:28:23;18.20;99.90
17619;DHT22;8928;51.678;6.074;2023-09-12T03:31:11;18.20;99.90
17619;DHT22;8928;51.678;6.074;2023-09-12T03:33:59;18.20;99.90
17619;DHT22;8928;51.678;6.074;2023-09-12T03:36:47;18.20;99.90
17619;DHT22;8928;51.678;6.074;2023-09-12T03:39:34;18.20;99.90
17619;DHT22;8928;51.678;6.074;2023-09-12T03:42:22;18.20;99.90
17619;DHT22;8928;51.678;6.074;2023-09-12T03:45:10;18.20;99.90
17619;DHT22;8928;51.678;6.074;2023-09-12T03:47:57;18.20;99.90
17619;DHT22;8928;51.678;6.074;2023-09-12T03:50:45;18.20;99.90
17619;DHT22;8928;51.678;6.074;2023-09-12T03:53:32;18.20;99.90
17619;DHT22;8928;51.678;6.074;2023-09-12T03:56:19;18.20;99.90
17619;DHT22;8928;51.678;6.074;2023-09-12T03:59:07;18.20;99.90
17619;DHT22;8928;51.678;6.074;2023-09-12T04:01:54;18.20;99.90
17619;DHT22;8928;51.678;6.074;2023-09-12T04:04:41;18.20;99.90
17619;DHT22;8928;51.678;6.074;2023-09-12T04:07:28;18.20;99.90
17619;DHT22;8928;51.678;6.074;2023-09-12T04:10:15;18.20;99.90
17619;DHT22;8928;51.678;6.074;2023-09-12T04:13:04;18.20;99.90
17619;DHT22;8928;51.678;6.074;2023-09-12T04:15:52;18.20;99.90
17619;DHT22;8928;51.678;6.074;2023-09-12T04:18:39;18.20;99.90
17619;DHT22;8928;51.678;6.074;2023-09-12T04:21:26;18.20;99.90
17619;DHT22;8928;51.678;6.074;2023-09-12T04:24:13;18.20;99.90
17619;DHT22;8928;51.678;6.074;2023-09-12T04:27:03;18.20;99.90
17619;DHT22;8928;51.678;6.074;2023-09-12T04:29:50;18.20;99.90
17619;DHT22;8928;51.678;6.074;2023-09-12T04:32:39;18.20;99.90
17619;DHT22;8928;51.678;6.074;2023-09-12T04:35:26;18.20;99.90
17619;DHT22;8928;51.678;6.074;2023-09-12T04:38:13;18.20;99.90
17619;DHT22;8928;51.678;6.074;2023-09-12T04:41:02;18.20;99.90
17619;DHT22;8928;51.678;6.074;2023-09-12T04:43:50;18.20;99.90
17619;DHT22;8928;51.678;6.074;2023-09-12T04:46:37;18.30;99.90
17619;DHT22;8928;51.678;6.074;2023-09-12T04:49:26;18.30;99.90
17619;DHT22;8928;51.678;6.074;2023-09-12T04:52:14;18.30;99.90
17619;DHT22;8928;51.678;6.074;2023-09-12T04:55:01;18.30;99.90
17619;DHT22;8928;51.678;6.074;2023-09-12T04:57:49;18.30;99.90
17619;DHT22;8928;51.678;6.074;2023-09-12T05:00:36;18.30;99.90
17619;DHT22;8928;51.678;6.074;2023-09-12T05:03:25;18.40;99.90
17619;DHT22;8928;51.678;6.074;2023-09-12T05:06:14;18.40;99.90
17619;DHT22;8928;51.678;6.074;2023-09-12T05:09:01;18.40;99.90
17619;DHT22;8928;51.678;6.074;2023-09-12T05:11:48;18.40;99.90
17619;DHT22;8928;51.678;6.074;2023-09-12T05:14:35;18.40;99.90
17619;DHT22;8928;51.678;6.074;2023-09-12T05:17:22;18.40;99.90
17619;DHT22;8928;51.678;6.074;2023-09-12T05:20:10;18.40;99.90
17619;DHT22;8928;51.678;6.074;2023-09-12T05:22:58;18.40;99.90
17619;DHT22;8928;51.678;6.074;2023-09-12T05:25:45;18.40;99.90
17619;DHT22;8928;51.678;6.074;2023-09-12T05:28:34;18.50;99.90
17619;DHT22;8928;51.678;6.074;2023-09-12T05:31:21;18.50;99.90
17619;DHT22;8928;51.678;6.074;2023-09-12T05:34:08;18.40;99.90
17619;DHT22;8928;51.678;6.074;2023-09-12T05:36:56;18.50;99.90
17619;DHT22;8928;51.678;6.074;2023-09-12T05:39:44;18.50;99.90
17619;DHT22;8928;51.678;6.074;2023-09-12T05:42:31;18.50;99.90
17619;DHT22;8928;51.678;6.074;2023-09-12T05:45:19;18.50;99.90
17619;DHT22;8928;51.678;6.074;2023-09-12T05:48:06;18.50;99.90
17619;DHT22;8928;51.678;6.074;2023-09-12T05:50:53;18.50;99.90
17619;DHT22;8928;51.678;6.074;2023-09-12T05:53:40;18.50;99.90
17619;DHT22;8928;51.678;6.074;2023-09-12T05:56:28;18.50;99.90
17619;DHT22;8928;51.678;6.074;2023-09-12T05:59:15;18.60;99.90
17619;DHT22;8928;51.678;6.074;2023-09-12T06:02:03;18.60;99.90
17619;DHT22;8928;51.678;6.074;2023-09-12T06:04:50;18.60;99.90
17619;DHT22;8928;51.678;6.074;2023-09-12T06:07:37;18.60;99.90
17619;DHT22;8928;51.678;6.074;2023-09-12T06:10:26;18.60;99.90
17619;DHT22;8928;51.678;6.074;2023-09-12T06:13:14;18.60;99.90
17619;DHT22;8928;51.678;6.074;2023-09-12T06:16:01;18.60;99.90
17619;DHT22;8928;51.678;6.074;2023-09-12T06:18:48;18.50;99.90
17619;DHT22;8928;51.678;6.074;2023-09-12T06:21:35;18.50;99.90
17619;DHT22;8928;51.678;6.074;2023-09-12T06:24:22;18.50;99.90
17619;DHT22;8928;51.678;6.074;2023-09-12T06:27:09;18.60;99.90
17619;DHT22;8928;51.678;6.074;2023-09-12T06:29:59;18.60;99.90
17619;DHT22;8928;51.678;6.074;2023-09-12T06:32:47;18.60;99.90
17619;DHT22;8928;51.678;6.074;2023-09-12T06:35:34;18.70;99.90
17619;DHT22;8928;51.678;6.074;2023-09-12T06:38:22;18.70;99.90
17619;DHT22;8928;51.678;6.074;2023-09-12T06:41:10;18.70;99.90
17619;DHT22;8928;51.678;6.074;2023-09-12T06:43:57;18.70;99.90
17619;DHT22;8928;51.678;6.074;2023-09-12T06:46:45;18.70;99.90
17619;DHT22;8928;51.678;6.074;2023-09-12T06:49:32;18.70;99.90
17619;DHT22;8928;51.678;6.074;2023-09-12T06:52:21;18.70;99.90
17619;DHT22;8928;51.678;6.074;2023-09-12T06:55:09;18.80;99.90
17619;DHT22;8928;51.678;6.074;2023-09-12T06:57:56;18.80;99.90
17619;DHT22;8928;51.678;6.074;2023-09-12T07:00:43;18.80;99.90
17619;DHT22;8928;51.678;6.074;2023-09-12T07:03:31;18.80;99.90
17619;DHT22;8928;51.678;6.074;2023-09-12T07:06:19;18.80;99.90
17619;DHT22;8928;51.678;6.074;2023-09-12T07:09:06;18.80;99.90
17619;DHT22;8928;51.678;6.074;2023-09-12T07:11:54;18.90;99.90
17619;DHT22;8928;51.678;6.074;2023-09-12T07:14:41;18.90;99.90
17619;DHT22;8928;51.678;6.074;2023-09-12T07:17:28;19.00;99.90
17619;DHT22;8928;51.678;6.074;2023-09-12T07:20:17;19.00;99.90
17619;DHT22;8928;51.678;6.074;2023-09-12T07:23:05;19.00;99.90
17619;DHT22;8928;51.678;6.074;2023-09-12T07:25:54;19.10;99.90
17619;DHT22;8928;51.678;6.074;2023-09-12T07:28:43;19.20;99.90
17619;DHT22;8928;51.678;6.074;2023-09-12T07:31:30;19.30;99.90
17619;DHT22;8928;51.678;6.074;2023-09-12T07:34:17;19.30;99.90
17619;DHT22;8928;51.678;6.074;2023-09-12T07:37:05;19.30;99.90
17619;DHT22;8928;51.678;6.074;2023-09-12T07:39:52;19.40;99.90
17619;DHT22;8928;51.678;6.074;2023-09-12T07:42:39;19.40;99.90
17619;DHT22;8928;51.678;6.074;2023-09-12T07:45:26;19.50;99.90
17619;DHT22;8928;51.678;6.074;2023-09-12T07:48:14;19.70;99.90
17619;DHT22;8928;51.678;6.074;2023-09-12T07:51:01;19.70;99.90
17619;DHT22;8928;51.678;6.074;2023-09-12T07:53:49;19.70;99.90
17619;DHT22;8928;51.678;6.074;2023-09-12T07:56:37;19.80;99.90
17619;DHT22;8928;51.678;6.074;2023-09-12T07:59:24;19.90;99.90
17619;DHT22;8928;51.678;6.074;2023-09-12T08:02:11;19.90;99.90
17619;DHT22;8928;51.678;6.074;2023-09-12T08:04:58;20.00;99.90
17619;DHT22;8928;51.678;6.074;2023-09-12T08:07:45;19.90;99.90
17619;DHT22;8928;51.678;6.074;2023-09-12T08:10:34;20.00;99.90
17619;DHT22;8928;51.678;6.074;2023-09-12T08:13:21;19.90;99.90
17619;DHT22;8928;51.678;6.074;2023-09-12T08:16:08;19.80;99.90
17619;DHT22;8928;51.678;6.074;2023-09-12T08:18:55;19.70;99.90
17619;DHT22;8928;51.678;6.074;2023-09-12T08:21:42;19.80;99.90
17619;DHT22;8928;51.678;6.074;2023-09-12T08:24:29;20.00;99.90
17619;DHT22;8928;51.678;6.074;2023-09-12T08:27:17;20.20;99.90
17619;DHT22;8928;51.678;6.074;2023-09-12T08:30:05;20.30;99.90
17619;DHT22;8928;51.678;6.074;2023-09-12T08:32:52;20.20;99.90
17619;DHT22;8928;51.678;6.074;2023-09-12T08:35:40;20.10;99.90
17619;DHT22;8928;51.678;6.074;2023-09-12T08:38:27;20.20;99.90
17619;DHT22;8928;51.678;6.074;2023-09-12T08:41:14;20.40;99.90
17619;DHT22;8928;51.678;6.074;2023-09-12T08:44:03;20.40;99.90
17619;DHT22;8928;51.678;6.074;2023-09-12T08:46:51;20.40;99.90
17619;DHT22;8928;51.678;6.074;2023-09-12T08:49:38;20.50;99.90
17619;DHT22;8928;51.678;6.074;2023-09-12T08:52:27;20.50;99.90
17619;DHT22;8928;51.678;6.074;2023-09-12T08:55:15;20.70;99.90
17619;DHT22;8928;51.678;6.074;2023-09-12T08:58:03;20.70;99.90
17619;DHT22;8928;51.678;6.074;2023-09-12T09:00:51;20.80;99.90
17619;DHT22;8928;51.678;6.074;2023-09-12T09:03:40;20.90;99.90
17619;DHT22;8928;51.678;6.074;2023-09-12T09:06:32;21.00;99.90
17619;DHT22;8928;51.678;6.074;2023-09-12T09:09:22;21.20;99.90
17619;DHT22;8928;51.678;6.074;2023-09-12T09:12:10;21.10;99.90
17619;DHT22;8928;51.678;6.074;2023-09-12T09:14:57;21.10;99.90
17619;DHT22;8928;51.678;6.074;2023-09-12T09:17:47;21.40;99.90
17619;DHT22;8928;51.678;6.074;2023-09-12T09:20:34;21.60;99.90
17619;DHT22;8928;51.678;6.074;2023-09-12T09:23:22;21.70;99.90
17619;DHT22;8928;51.678;6.074;2023-09-12T09:26:10;21.80;99.90
17619;DHT22;8928;51.678;6.074;2023-09-12T09:29:02;21.80;99.90
17619;DHT22;8928;51.678;6.074;2023-09-12T09:31:51;21.80;99.90
17619;DHT22;8928;51.678;6.074;2023-09-12T09:34:39;21.90;99.90
17619;DHT22;8928;51.678;6.074;2023-09-12T09:37:28;22.10;99.90
17619;DHT22;8928;51.678;6.074;2023-09-12T09:40:15;22.30;99.90
17619;DHT22;8928;51.678;6.074;2023-09-12T09:43:03;22.50;99.90
17619;DHT22;8928;51.678;6.074;2023-09-12T09:45:51;22.50;99.90
17619;DHT22;8928;51.678;6.074;2023-09-12T09:48:38;22.60;99.90
17619;DHT22;8928;51.678;6.074;2023-09-12T09:51:26;22.70;99.90
17619;DHT22;8928;51.678;6.074;2023-09-12T09:54:14;22.90;99.90
17619;DHT22;8928;51.678;6.074;2023-09-12T09:57:01;22.90;99.90
17619;DHT22;8928;51.678;6.074;2023-09-12T09:59:50;23.10;99.90
17619;DHT22;8928;51.678;6.074;2023-09-12T10:02:39;23.20;99.90
17619;DHT22;8928;51.678;6.074;2023-09-12T10:05:27;23.20;99.90
17619;DHT22;8928;51.678;6.074;2023-09-12T10:08:17;23.20;99.90
17619;DHT22;8928;51.678;6.074;2023-09-12T10:11:04;23.10;99.90
17619;DHT22;8928;51.678;6.074;2023-09-12T10:13:53;23.00;99.90
17619;DHT22;8928;51.678;6.074;2023-09-12T10:16:44;22.80;99.90
17619;DHT22;8928;51.678;6.074;2023-09-12T10:19:35;22.60;99.90
17619;DHT22;8928;51.678;6.074;2023-09-12T10:22:27;22.70;99.90
17619;DHT22;8928;51.678;6.074;2023-09-12T10:25:19;22.70;99.90
17619;DHT22;8928;51.678;6.074;2023-09-12T10:28:07;23.00;99.90
17619;DHT22;8928;51.678;6.074;2023-09-12T10:30:55;23.20;99.90
17619;DHT22;8928;51.678;6.074;2023-09-12T10:33:44;23.40;99.90
17619;DHT22;8928;51.678;6.074;2023-09-12T10:36:33;23.40;99.90
17619;DHT22;8928;51.678;6.074;2023-09-12T10:39:23;23.30;99.90
17619;DHT22;8928;51.678;6.074;2023-09-12T10:42:12;23.30;99.90
17619;DHT22;8928;51.678;6.074;2023-09-12T10:45:01;23.50;99.90
17619;DHT22;8928;51.678;6.074;2023-09-12T10:47:49;23.50;99.90
17619;DHT22;8928;51.678;6.074;2023-09-12T10:50:37;23.50;99.90
17619;DHT22;8928;51.678;6.074;2023-09-12T10:53:26;23.50;99.90
17619;DHT22;8928;51.678;6.074;2023-09-12T10:56:16;24.00;99.90
17619;DHT22;8928;51.678;6.074;2023-09-12T10:59:12;24.50;99.90
17619;DHT22;8928;51.678;6.074;2023-09-12T11:02:27;25.10;99.90
17619;DHT22;8928;51.678;6.074;2023-09-12T11:05:37;25.40;99.90
17619;DHT22;8928;51.678;6.074;2023-09-12T11:08:24;25.30;99.90
17619;DHT22;8928;51.678;6.074;2023-09-12T11:11:17;25.20;99.90
17619;DHT22;8928;51.678;6.074;2023-09-12T11:14:05;24.90;99.90
17619;DHT22;8928;51.678;6.074;2023-09-12T11:17:23;24.90;99.90
17619;DHT22;8928;51.678;6.074;2023-09-12T11:20:10;24.90;99.90
17619;DHT22;8928;51.678;6.074;2023-09-12T11:23:09;24.90;99.90
17619;DHT22;8928;51.678;6.074;2023-09-12T11:26:04;24.90;99.90
17619;DHT22;8928;51.678;6.074;2023-09-12T11:28:53;25.10;99.90
17619;DHT22;8928;51.678;6.074;2023-09-12T11:31:41;25.40;99.90
17619;DHT22;8928;51.678;6.074;2023-09-12T11:34:42;26.20;99.90
17619;DHT22;8928;51.678;6.074;2023-09-12T11:37:30;26.70;99.90
17619;DHT22;8928;51.678;6.074;2023-09-12T11:40:23;27.00;99.90
17619;DHT22;8928;51.678;6.074;2023-09-12T11:43:20;27.00;99.90
17619;DHT22;8928;51.678;6.074;2023-09-12T11:46:08;26.70;99.90
17619;DHT22;8928;51.678;6.074;2023-09-12T11:48:56;26.70;99.90
17619;DHT22;8928;51.678;6.074;2023-09-12T11:51:48;26.60;99.90
17619;DHT22;8928;51.678;6.074;2023-09-12T11:54:35;26.20;99.90
17619;DHT22;8928;51.678;6.074;2023-09-12T11:57:23;25.60;99.90
17619;DHT22;8928;51.678;6.074;2023-09-12T12:00:12;25.20;99.90
17619;DHT22;8928;51.678;6.074;2023-09-12T12:03:00;25.00;99.90
17619;DHT22;8928;51.678;6.074;2023-09-12T12:05:47;24.80;99.90
17619;DHT22;8928;51.678;6.074;2023-09-12T12:08:36;24.70;99.90
17619;DHT22;8928;51.678;6.074;2023-09-12T12:11:27;25.20;99.90
17619;DHT22;8928;51.678;6.074;2023-09-12T12:14:16;25.90;99.90
17619;DHT22;8928;51.678;6.074;2023-09-12T12:17:06;26.60;99.90
17619;DHT22;8928;51.678;6.074;2023-09-12T12:19:54;26.60;99.90
17619;DHT22;8928;51.678;6.074;2023-09-12T12:22:42;26.60;99.90
17619;DHT22;8928;51.678;6.074;2023-09-12T12:25:33;26.70;99.90
17619;DHT22;8928;51.678;6.074;2023-09-12T12:28:21;26.90;99.90
17619;DHT22;8928;51.678;6.074;2023-09-12T12:31:08;27.20;99.90
17619;DHT22;8928;51.678;6.074;2023-09-12T12:33:57;27.70;99.90
17619;DHT22;8928;51.678;6.074;2023-09-12T12:36:45;27.90;99.90
17619;DHT22;8928;51.678;6.074;2023-09-12T12:39:32;28.10;99.90
17619;DHT22;8928;51.678;6.074;2023-09-12T12:42:21;28.10;99.90
17619;DHT22;8928;51.678;6.074;2023-09-12T12:45:12;28.40;99.90
17619;DHT22;8928;51.678;6.074;2023-09-12T12:48:00;28.70;99.90
17619;DHT22;8928;51.678;6.074;2023-09-12T12:50:48;29.20;99.90
17619;DHT22;8928;51.678;6.074;2023-09-12T12:53:38;29.40;99.90
17619;DHT22;8928;51.678;6.074;2023-09-12T12:56:27;29.50;99.90
17619;DHT22;8928;51.678;6.074;2023-09-12T12:59:16;29.70;99.90
17619;DHT22;8928;51.678;6.074;2023-09-12T13:02:03;30.10;99.90
17619;DHT22;8928;51.678;6.074;2023-09-12T13:04:50;30.20;99.90
17619;DHT22;8928;51.678;6.074;2023-09-12T13:07:37;30.10;99.90
17619;DHT22;8928;51.678;6.074;2023-09-12T13:10:24;29.90;99.90
17619;DHT22;8928;51.678;6.074;2023-09-12T13:13:11;30.10;99.90
17619;DHT22;8928;51.678;6.074;2023-09-12T13:16:00;30.20;99.90
17619;DHT22;8928;51.678;6.074;2023-09-12T13:18:47;30.30;99.90
17619;DHT22;8928;51.678;6.074;2023-09-12T13:21:34;30.60;99.90
17619;DHT22;8928;51.678;6.074;2023-09-12T13:24:22;30.40;99.90
17619;DHT22;8928;51.678;6.074;2023-09-12T13:27:09;30.40;99.90
17619;DHT22;8928;51.678;6.074;2023-09-12T13:29:56;30.60;99.90
17619;DHT22;8928;51.678;6.074;2023-09-12T13:32:45;30.70;99.90
17619;DHT22;8928;51.678;6.074;2023-09-12T13:35:32;30.90;99.90
17619;DHT22;8928;51.678;6.074;2023-09-12T13:38:19;30.70;99.90
17619;DHT22;8928;51.678;6.074;2023-09-12T13:41:08;30.80;99.90
17619;DHT22;8928;51.678;6.074;2023-09-12T13:43:55;30.70;99.90
17619;DHT22;8928;51.678;6.074;2023-09-12T13:46:42;30.80;99.90
17619;DHT22;8928;51.678;6.074;2023-09-12T13:49:31;31.20;99.90
17619;DHT22;8928;51.678;6.074;2023-09-12T13:52:19;31.20;99.90
17619;DHT22;8928;51.678;6.074;2023-09-12T13:55:07;31.60;99.90
17619;DHT22;8928;51.678;6.074;2023-09-12T13:58:00;31.80;99.90
17619;DHT22;8928;51.678;6.074;2023-09-12T14:00:48;31.80;99.90
17619;DHT22;8928;51.678;6.074;2023-09-12T14:03:35;31.90;99.90
17619;DHT22;8928;51.678;6.074;2023-09-12T14:06:23;32.10;99.90
17619;DHT22;8928;51.678;6.074;2023-09-12T14:09:10;31.80;99.90
17619;DHT22;8928;51.678;6.074;2023-09-12T14:11:57;31.80;99.90
17619;DHT22;8928;51.678;6.074;2023-09-12T14:14:44;32.00;99.90
17619;DHT22;8928;51.678;6.074;2023-09-12T14:17:32;31.90;99.90
17619;DHT22;8928;51.678;6.074;2023-09-12T14:20:19;31.90;99.90
17619;DHT22;8928;51.678;6.074;2023-09-12T14:23:07;32.20;99.90
17619;DHT22;8928;51.678;6.074;2023-09-12T14:25:54;32.10;99.90
17619;DHT22;8928;51.678;6.074;2023-09-12T14:28:41;32.40;99.90
17619;DHT22;8928;51.678;6.074;2023-09-12T14:31:28;32.40;99.90
17619;DHT22;8928;51.678;6.074;2023-09-12T14:34:15;31.70;99.90
17619;DHT22;8928;51.678;6.074;2023-09-12T14:37:03;32.10;99.90
17619;DHT22;8928;51.678;6.074;2023-09-12T14:39:51;32.30;99.90
17619;DHT22;8928;51.678;6.074;2023-09-12T14:42:38;32.30;99.90
17619;DHT22;8928;51.678;6.074;2023-09-12T14:45:27;32.10;99.90
17619;DHT22;8928;51.678;6.074;2023-09-12T14:48:14;32.40;99.90
17619;DHT22;8928;51.678;6.074;2023-09-12T14:51:01;32.40;99.90
17619;DHT22;8928;51.678;6.074;2023-09-12T14:53:48;32.00;99.90
17619;DHT22;8928;51.678;6.074;2023-09-12T14:56:36;32.30;99.90
17619;DHT22;8928;51.678;6.074;2023-09-12T14:59:23;32.30;99.90
17619;DHT22;8928;51.678;6.074;2023-09-12T15:02:10;32.50;99.90
17619;DHT22;8928;51.678;6.074;2023-09-12T15:04:58;32.70;99.90
17619;DHT22;8928;51.678;6.074;2023-09-12T15:07:45;33.10;99.90
17619;DHT22;8928;51.678;6.074;2023-09-12T15:10:32;33.10;99.90
17619;DHT22;8928;51.678;6.074;2023-09-12T15:13:20;33.00;99.90
17619;DHT22;8928;51.678;6.074;2023-09-12T15:16:07;32.80;99.90
17619;DHT22;8928;51.678;6.074;2023-09-12T15:18:54;32.40;99.90
17619;DHT22;8928;51.678;6.074;2023-09-12T15:21:41;32.10;99.90
17619;DHT22;8928;51.678;6.074;2023-09-12T15:24:28;32.00;99.90
17619;DHT22;8928;51.678;6.074;2023-09-12T15:27:15;32.00;99.90
17619;DHT22;8928;51.678;6.074;2023-09-12T15:30:04;31.60;99.90
17619;DHT22;8928;51.678;6.074;2023-09-12T15:32:52;30.70;99.90
17619;DHT22;8928;51.678;6.074;2023-09-12T15:35:39;30.30;99.90
17619;DHT22;8928;51.678;6.074;2023-09-12T15:38:28;30.40;99.90
17619;DHT22;8928;51.678;6.074;2023-09-12T15:41:15;30.60;99.90
17619;DHT22;8928;51.678;6.074;2023-09-12T15:44:02;30.80;99.90
17619;DHT22;8928;51.678;6.074;2023-09-12T15:46:51;30.80;99.90
17619;DHT22;8928;51.678;6.074;2023-09-12T15:49:39;30.50;99.90
17619;DHT22;8928;51.678;6.074;2023-09-12T15:52:26;30.20;99.90
17619;DHT22;8928;51.678;6.074;2023-09-12T15:55:13;30.00;99.90
17619;DHT22;8928;51.678;6.074;2023-09-12T15:58:00;29.50;99.90
17619;DHT22;8928;51.678;6.074;2023-09-12T16:00:47;28.80;99.90
17619;DHT22;8928;51.678;6.074;2023-09-12T16:03:36;27.80;99.90
17619;DHT22;8928;51.678;6.074;2023-09-12T16:06:23;27.10;99.90
17619;DHT22;8928;51.678;6.074;2023-09-12T16:09:10;26.20;99.90
17619;DHT22;8928;51.678;6.074;2023-09-12T16:11:57;25.60;99.90
17619;DHT22;8928;51.678;6.074;2023-09-12T16:14:44;25.00;99.90
17619;DHT22;8928;51.678;6.074;2023-09-12T16:17:31;24.50;99.90
17619;DHT22;8928;51.678;6.074;2023-09-12T16:20:19;24.20;99.90
17619;DHT22;8928;51.678;6.074;2023-09-12T16:23:06;23.90;99.90
17619;DHT22;8928;51.678;6.074;2023-09-12T16:25:53;23.60;99.90
17619;DHT22;8928;51.678;6.074;2023-09-12T16:28:40;23.30;99.90
17619;DHT22;8928;51.678;6.074;2023-09-12T16:31:28;23.20;99.90
17619;DHT22;8928;51.678;6.074;2023-09-12T16:34:16;23.00;99.90
17619;DHT22;8928;51.678;6.074;2023-09-12T16:37:05;22.80;99.90
17619;DHT22;8928;51.678;6.074;2023-09-12T16:39:52;22.70;99.90
17619;DHT22;8928;51.678;6.074;2023-09-12T16:42:39;22.60;99.90
17619;DHT22;8928;51.678;6.074;2023-09-12T16:45:26;22.50;99.90
17619;DHT22;8928;51.678;6.074;2023-09-12T16:48:13;22.50;99.90
17619;DHT22;8928;51.678;6.074;2023-09-12T16:51:00;22.40;99.90
17619;DHT22;8928;51.678;6.074;2023-09-12T16:53:50;22.40;99.90
17619;DHT22;8928;51.678;6.074;2023-09-12T16:56:37;22.30;99.90
17619;DHT22;8928;51.678;6.074;2023-09-12T16:59:24;22.20;99.90
17619;DHT22;8928;51.678;6.074;2023-09-12T17:02:11;22.20;99.90
17619;DHT22;8928;51.678;6.074;2023-09-12T17:04:58;22.10;99.90
17619;DHT22;8928;51.678;6.074;2023-09-12T17:07:45;22.00;99.90
17619;DHT22;8928;51.678;6.074;2023-09-12T17:10:34;21.90;99.90
17619;DHT22;8928;51.678;6.074;2023-09-12T17:13:21;21.70;99.90
17619;DHT22;8928;51.678;6.074;2023-09-12T17:16:08;21.70;99.90
17619;DHT22;8928;51.678;6.074;2023-09-12T17:18:55;21.70;99.90
17619;DHT22;8928;51.678;6.074;2023-09-12T17:21:42;21.60;99.90
17619;DHT22;8928;51.678;6.074;2023-09-12T17:24:31;21.60;99.90
17619;DHT22;8928;51.678;6.074;2023-09-12T17:27:19;21.50;99.90
17619;DHT22;8928;51.678;6.074;2023-09-12T17:30:07;21.50;99.90
17619;DHT22;8928;51.678;6.074;2023-09-12T17:32:56;21.50;99.90
17619;DHT22;8928;51.678;6.074;2023-09-12T17:35:43;21.40;99.90
17619;DHT22;8928;51.678;6.074;2023-09-12T17:38:30;21.40;99.90
17619;DHT22;8928;51.678;6.074;2023-09-12T17:41:17;21.30;99.90
17619;DHT22;8928;51.678;6.074;2023-09-12T17:44:06;21.20;99.90
17619;DHT22;8928;51.678;6.074;2023-09-12T17:46:54;21.10;99.90
17619;DHT22;8928;51.678;6.074;2023-09-12T17:49:41;21.10;99.90
17619;DHT22;8928;51.678;6.074;2023-09-12T17:52:28;21.10;99.90
17619;DHT22;8928;51.678;6.074;2023-09-12T17:55:15;21.00;99.90
17619;DHT22;8928;51.678;6.074;2023-09-12T17:58:03;21.00;99.90